Time,TemperatureF,DewpointF,PressureIn,WindDirection,WindDirectionDegrees,WindSpeedMPH,WindSpeedGustMPH,Humidity,HourlyPrecipIn,Conditions,Clouds,dailyrainin,SoftwareType,DateUTC
2013-04-21 00:03:00,75.0,73.0,30.10,NW,309,0.0,1.0,95,0.00,,,2.38,,2013-04-21 04:03:00,
2013-04-21 00:12:00,75.0,73.0,30.10,NNE,13,0.0,1.0,95,0.00,,,2.38,,2013-04-21 04:12:00,
2013-04-21 00:23:00,75.0,73.0,30.10,NNE,13,0.0,1.0,95,0.00,,,2.38,,2013-04-21 04:23:00,
2013-04-21 00:33:00,76.0,74.0,30.10,NNE,16,0.0,2.0,95,0.00,,,2.38,,2013-04-21 04:33:00,
2013-04-21 00:42:00,76.0,74.0,30.10,NNE,16,0.0,2.0,95,0.00,,,2.38,,2013-04-21 04:42:00,
2013-04-21 00:53:00,75.0,73.0,30.09,NE,41,0.0,1.0,95,0.00,,,2.38,,2013-04-21 04:53:00,
2013-04-21 01:02:00,75.0,73.0,30.09,NE,52,0.0,2.0,95,0.00,,,2.38,,2013-04-21 05:02:00,
2013-04-21 01:12:00,75.0,73.0,30.09,NE,52,0.0,2.0,95,0.00,,,2.38,,2013-04-21 05:12:00,
2013-04-21 01:22:00,75.0,73.0,30.09,North,6,0.0,2.0,95,0.00,,,2.38,,2013-04-21 05:22:00,
2013-04-21 01:32:00,75.0,74.0,30.08,NNE,16,0.0,2.0,96,0.00,,,2.38,,2013-04-21 05:32:00,
2013-04-21 01:42:00,75.0,74.0,30.08,NNE,16,0.0,2.0,96,0.00,,,2.38,,2013-04-21 05:42:00,
2013-04-21 01:52:00,74.0,73.0,30.08,NNE,22,0.0,1.0,96,0.00,,,2.38,,2013-04-21 05:52:00,
2013-04-21 02:01:00,74.0,73.0,30.08,NNE,16,0.0,2.0,96,0.00,,,2.38,,2013-04-21 06:01:00,
2013-04-21 02:12:00,74.0,73.0,30.08,NNE,16,0.0,2.0,96,0.00,,,2.25,,2013-04-21 06:12:00,
2013-04-21 02:22:00,74.0,73.0,30.08,NNE,16,0.0,2.0,96,0.00,,,2.25,,2013-04-21 06:22:00,
2013-04-21 02:32:00,74.0,73.0,30.07,NNW,342,0.0,2.0,96,0.00,,,2.25,,2013-04-21 06:32:00,
2013-04-21 02:42:00,74.0,73.0,30.07,NNW,342,0.0,2.0,96,0.00,,,2.25,,2013-04-21 06:42:00,
2013-04-21 02:52:00,74.0,73.0,30.07,WNW,292,0.0,4.0,96,0.00,,,2.25,,2013-04-21 06:52:00,
2013-04-21 03:01:00,74.0,73.0,30.06,NNW,329,0.0,4.0,96,0.00,,,2.25,,2013-04-21 07:01:00,
2013-04-21 03:12:00,74.0,73.0,30.06,NNW,329,0.0,4.0,96,0.00,,,2.25,,2013-04-21 07:12:00,
2013-04-21 03:21:00,74.0,73.0,30.06,NNW,329,0.0,4.0,96,0.00,,,2.25,,2013-04-21 07:21:00,
2013-04-21 03:32:00,73.0,72.0,30.06,NW,308,0.0,3.0,96,0.00,,,2.25,,2013-04-21 07:32:00,
2013-04-21 03:42:00,73.0,72.0,30.06,NW,308,0.0,3.0,96,0.00,,,2.25,,2013-04-21 07:42:00,
2013-04-21 03:52:00,73.0,72.0,30.06,NNE,32,0.0,3.0,96,0.00,,,2.25,,2013-04-21 07:52:00,
2013-04-21 04:01:00,73.0,72.0,30.05,NNE,19,1.0,3.0,96,0.00,,,2.25,,2013-04-21 08:01:00,
2013-04-21 04:12:00,73.0,72.0,30.05,NE,46,0.0,2.0,96,0.00,,,2.25,,2013-04-21 08:12:00,
2013-04-21 04:21:00,73.0,72.0,30.05,NE,46,0.0,2.0,96,0.00,,,2.25,,2013-04-21 08:21:00,
2013-04-21 04:32:00,73.0,72.0,30.04,NNE,18,0.0,1.0,96,0.00,,,2.21,,2013-04-21 08:32:00,
2013-04-21 04:42:00,73.0,72.0,30.04,NNE,18,0.0,1.0,96,0.00,,,2.21,,2013-04-21 08:42:00,
2013-04-21 04:52:00,73.0,72.0,30.03,NE,37,0.0,0.0,96,0.00,,,2.21,,2013-04-21 08:52:00,
2013-04-21 05:02:00,73.0,72.0,30.03,ESE,102,0.0,2.0,96,0.00,,,2.21,,2013-04-21 09:02:00,
2013-04-21 05:12:00,73.0,72.0,30.03,ESE,110,0.0,0.0,97,0.00,,,2.21,,2013-04-21 09:12:00,
2013-04-21 05:21:00,73.0,72.0,30.03,ESE,110,0.0,0.0,97,0.00,,,2.21,,2013-04-21 09:21:00,
2013-04-21 05:32:00,73.0,72.0,30.02,ESE,105,0.0,1.0,96,0.00,,,2.21,,2013-04-21 09:32:00,
2013-04-21 05:43:00,73.0,72.0,30.02,ESE,105,0.0,1.0,96,0.00,,,2.21,,2013-04-21 09:43:00,
2013-04-21 05:52:00,73.0,72.0,30.01,NE,46,0.0,1.0,96,0.00,,,2.21,,2013-04-21 09:52:00,
2013-04-21 06:03:00,73.0,72.0,30.02,North,5,0.0,1.0,97,0.00,,,2.21,,2013-04-21 10:03:00,
2013-04-21 06:12:00,72.0,71.0,30.02,NNE,22,0.0,0.0,97,0.00,,,2.21,,2013-04-21 10:12:00,
2013-04-21 06:22:00,72.0,71.0,30.02,NNE,22,0.0,0.0,97,0.00,,,2.21,,2013-04-21 10:22:00,
2013-04-21 06:32:00,72.0,71.0,30.02,NNE,22,0.0,0.0,97,0.00,,,2.21,,2013-04-21 10:32:00,
2013-04-21 06:42:00,72.0,71.0,30.02,NNE,22,0.0,0.0,97,0.00,,,2.21,,2013-04-21 10:42:00,
2013-04-21 06:52:00,73.0,72.0,30.05,NNE,22,0.0,0.0,97,0.00,,,2.21,,2013-04-21 10:52:00,
2013-04-21 07:02:00,73.0,72.0,30.06,ENE,70,0.0,1.0,97,0.00,,,2.21,,2013-04-21 11:02:00,
2013-04-21 07:12:00,73.0,72.0,30.06,ENE,70,0.0,1.0,97,0.00,,,2.21,,2013-04-21 11:12:00,
2013-04-21 07:22:00,73.0,72.0,30.07,ENE,61,0.0,2.0,97,0.00,,,2.21,,2013-04-21 11:22:00,
2013-04-21 07:34:00,73.0,72.0,30.08,North,10,1.0,5.0,96,0.00,,,2.21,,2013-04-21 11:34:00,
2013-04-21 07:42:00,73.0,72.0,30.08,North,10,1.0,5.0,96,0.00,,,2.21,,2013-04-21 11:42:00,
2013-04-21 07:52:00,73.0,72.0,30.08,ENE,65,1.0,3.0,96,0.00,,,2.21,,2013-04-21 11:52:00,
2013-04-21 08:02:00,73.0,72.0,30.08,NNE,27,1.0,4.0,96,0.00,,,2.21,,2013-04-21 12:02:00,
2013-04-21 08:12:00,73.0,72.0,30.09,NW,307,1.0,4.0,96,0.00,,,2.21,,2013-04-21 12:12:00,
2013-04-21 08:22:00,73.0,72.0,30.09,NW,307,1.0,4.0,96,0.00,,,2.21,,2013-04-21 12:22:00,
2013-04-21 08:32:00,73.0,72.0,30.09,NW,312,0.0,2.0,96,0.00,,,2.21,,2013-04-21 12:32:00,
2013-04-21 08:42:00,73.0,72.0,30.09,NW,312,0.0,2.0,96,0.00,,,2.21,,2013-04-21 12:42:00,
2013-04-21 08:52:00,73.0,72.0,30.09,WNW,284,0.0,2.0,96,0.00,,,2.21,,2013-04-21 12:52:00,
2013-04-21 09:01:00,74.0,72.0,30.09,NNE,25,0.0,1.0,94,0.00,,,2.21,,2013-04-21 13:01:00,
2013-04-21 09:12:00,76.0,74.0,30.09,NE,50,0.0,1.0,92,0.00,,,2.21,,2013-04-21 13:12:00,
2013-04-21 09:21:00,76.0,74.0,30.09,NE,50,0.0,1.0,92,0.00,,,2.21,,2013-04-21 13:21:00,
2013-04-21 09:32:00,77.0,74.0,30.09,ENE,74,1.0,4.0,89,0.00,,,2.21,,2013-04-21 13:32:00,
2013-04-21 09:42:00,77.0,74.0,30.09,ENE,74,1.0,4.0,89,0.00,,,2.21,,2013-04-21 13:42:00,
2013-04-21 09:52:00,78.0,73.0,30.09,NNE,15,1.0,4.0,86,0.00,,,2.21,,2013-04-21 13:52:00,
2013-04-21 10:02:00,79.0,73.0,30.10,ENE,57,2.0,5.0,83,0.00,,,2.21,,2013-04-21 14:02:00,
2013-04-21 10:11:00,79.0,73.0,30.10,ENE,57,2.0,5.0,83,0.00,,,2.21,,2013-04-21 14:11:00,
2013-04-21 10:21:00,80.0,74.0,30.10,ENE,75,2.0,6.0,81,0.00,,,2.21,,2013-04-21 14:21:00,
2013-04-21 10:32:00,81.0,75.0,30.10,NNE,20,2.0,6.0,81,0.00,,,2.21,,2013-04-21 14:32:00,
2013-04-21 10:42:00,81.0,75.0,30.10,NNE,20,2.0,6.0,81,0.00,,,2.21,,2013-04-21 14:42:00,
2013-04-21 10:52:00,81.0,74.0,30.10,NNE,22,3.0,7.0,80,0.00,,,2.21,,2013-04-21 14:52:00,
2013-04-21 11:02:00,82.0,74.0,30.11,NE,42,4.0,9.0,78,0.00,,,2.21,,2013-04-21 15:02:00,
2013-04-21 11:11:00,82.0,74.0,30.11,NE,42,4.0,9.0,78,0.00,,,2.21,,2013-04-21 15:11:00,
2013-04-21 11:22:00,81.0,74.0,30.11,NE,53,4.0,11.0,79,0.00,,,2.21,,2013-04-21 15:22:00,
2013-04-21 11:33:00,81.0,73.0,30.11,East,79,4.0,12.0,77,0.00,,,2.21,,2013-04-21 15:33:00,
2013-04-21 11:43:00,81.0,73.0,30.11,East,79,4.0,12.0,77,0.00,,,2.21,,2013-04-21 15:43:00,
2013-04-21 11:53:00,83.0,73.0,30.10,NNE,29,4.0,8.0,73,0.00,,,2.21,,2013-04-21 15:53:00,
2013-04-21 12:03:00,83.0,73.0,30.10,NNE,29,4.0,8.0,73,0.00,,,2.21,,2013-04-21 16:03:00,
2013-04-21 12:12:00,83.0,73.0,30.10,NNE,29,4.0,8.0,73,0.00,,,2.21,,2013-04-21 16:12:00,
2013-04-21 12:23:00,84.0,73.0,30.10,East,84,1.0,5.0,70,0.00,,,2.21,,2013-04-21 16:23:00,
2013-04-21 12:33:00,83.0,72.0,30.10,NE,46,3.0,8.0,70,0.00,,,2.21,,2013-04-21 16:33:00,
2013-04-21 12:42:00,83.0,72.0,30.10,NE,46,3.0,8.0,70,0.00,,,2.21,,2013-04-21 16:42:00,
2013-04-21 12:53:00,84.0,72.0,30.10,South,186,1.0,7.0,68,0.00,,,2.21,,2013-04-21 16:53:00,
2013-04-21 13:02:00,85.0,71.0,30.10,North,354,3.0,7.0,64,0.00,,,2.21,,2013-04-21 17:02:00,
2013-04-21 13:12:00,85.0,72.0,30.09,ESE,103,4.0,12.0,65,0.00,,,2.21,,2013-04-21 17:12:00,
2013-04-21 13:23:00,85.0,72.0,30.09,ESE,103,4.0,12.0,65,0.00,,,2.21,,2013-04-21 17:23:00,
2013-04-21 13:32:00,84.0,71.0,30.09,ESE,110,4.0,10.0,66,0.00,,,2.21,,2013-04-21 17:32:00,
2013-04-21 13:42:00,84.0,71.0,30.09,ESE,110,4.0,10.0,66,0.00,,,2.21,,2013-04-21 17:42:00,
2013-04-21 13:52:00,84.0,71.0,30.08,East,101,4.0,11.0,65,0.00,,,2.21,,2013-04-21 17:52:00,
2013-04-21 14:02:00,85.0,73.0,30.08,ESE,121,4.0,10.0,67,0.00,,,2.21,,2013-04-21 18:02:00,
2013-04-21 14:11:00,85.0,73.0,30.08,ESE,121,4.0,10.0,67,0.00,,,2.21,,2013-04-21 18:11:00,
2013-04-21 14:22:00,84.0,74.0,30.07,ESE,104,4.0,12.0,72,0.00,,,2.21,,2013-04-21 18:22:00,
2013-04-21 14:32:00,84.0,74.0,30.06,East,92,4.0,11.0,71,0.00,,,2.21,,2013-04-21 18:32:00,
2013-04-21 14:42:00,84.0,74.0,30.06,East,92,4.0,11.0,71,0.00,,,2.21,,2013-04-21 18:42:00,
2013-04-21 14:52:00,84.0,75.0,30.06,East,82,3.0,10.0,74,0.00,,,2.21,,2013-04-21 18:52:00,
2013-04-21 15:02:00,83.0,73.0,30.06,ENE,75,2.0,11.0,72,0.00,,,2.21,,2013-04-21 19:02:00,
2013-04-21 15:12:00,83.0,73.0,30.06,ENE,75,2.0,11.0,72,0.00,,,2.21,,2013-04-21 19:12:00,
2013-04-21 15:22:00,82.0,73.0,30.05,WSW,240,3.0,10.0,74,0.00,,,2.21,,2013-04-21 19:22:00,
2013-04-21 15:32:00,83.0,74.0,30.04,NE,41,1.0,11.0,75,0.00,,,2.21,,2013-04-21 19:32:00,
2013-04-21 15:42:00,83.0,74.0,30.04,NE,41,1.0,11.0,75,0.00,,,2.21,,2013-04-21 19:42:00,
2013-04-21 15:52:00,84.0,74.0,30.03,East,94,4.0,8.0,72,0.00,,,2.21,,2013-04-21 19:52:00,
2013-04-21 16:02:00,83.0,73.0,30.02,East,82,2.0,7.0,73,0.00,,,2.21,,2013-04-21 20:02:00,
2013-04-21 16:11:00,83.0,73.0,30.02,East,82,2.0,7.0,73,0.00,,,2.21,,2013-04-21 20:11:00,
2013-04-21 16:22:00,83.0,74.0,30.01,SE,134,2.0,9.0,75,0.00,,,2.21,,2013-04-21 20:22:00,
2013-04-21 16:32:00,83.0,74.0,30.02,SSE,163,3.0,8.0,74,0.00,,,2.21,,2013-04-21 20:32:00,
2013-04-21 16:42:00,83.0,74.0,30.02,SSE,163,3.0,8.0,74,0.00,,,2.21,,2013-04-21 20:42:00,
2013-04-21 16:52:00,82.0,74.0,30.02,ESE,106,1.0,10.0,76,0.00,,,2.21,,2013-04-21 20:52:00,
2013-04-21 17:02:00,81.0,73.0,30.01,ENE,75,2.0,7.0,77,0.00,,,2.21,,2013-04-21 21:02:00,
2013-04-21 17:12:00,81.0,73.0,30.01,ESE,118,2.0,7.0,77,0.00,,,2.21,,2013-04-21 21:12:00,
2013-04-21 17:22:00,81.0,73.0,30.01,ESE,118,2.0,7.0,77,0.00,,,2.21,,2013-04-21 21:22:00,
2013-04-21 17:33:00,81.0,74.0,30.01,SSE,162,1.0,5.0,79,0.00,,,2.21,,2013-04-21 21:33:00,
2013-04-21 17:43:00,81.0,74.0,30.01,SSE,162,1.0,5.0,79,0.00,,,2.21,,2013-04-21 21:43:00,
2013-04-21 17:53:00,80.0,73.0,30.02,SE,143,1.0,3.0,80,0.00,,,2.21,,2013-04-21 21:53:00,
2013-04-21 18:02:00,80.0,73.0,30.03,SSW,212,0.0,3.0,80,0.00,,,2.21,,2013-04-21 22:02:00,
2013-04-21 18:12:00,79.0,73.0,30.03,ESE,113,0.0,4.0,81,0.00,,,0.01,,2013-04-21 22:12:00,
2013-04-21 18:22:00,79.0,73.0,30.03,ESE,113,0.0,4.0,81,0.00,,,0.01,,2013-04-21 22:22:00,
2013-04-21 18:33:00,79.0,72.0,30.03,South,187,1.0,5.0,80,0.00,,,0.01,,2013-04-21 22:33:00,
2013-04-21 18:43:00,79.0,72.0,30.03,South,187,1.0,5.0,80,0.00,,,0.01,,2013-04-21 22:43:00,
2013-04-21 18:53:00,79.0,72.0,30.03,WSW,238,1.0,4.0,80,0.00,,,0.01,,2013-04-21 22:53:00,
2013-04-21 19:02:00,79.0,73.0,30.05,SSW,200,0.0,3.0,82,0.00,,,0.01,,2013-04-21 23:02:00,
2013-04-21 19:12:00,79.0,73.0,30.05,SSW,200,0.0,3.0,82,0.00,,,0.01,,2013-04-21 23:12:00,
2013-04-21 19:22:00,78.0,73.0,30.06,SW,224,1.0,2.0,84,0.00,,,0.00,,2013-04-21 23:22:00,
2013-04-21 19:32:00,78.0,73.0,30.06,SW,215,2.0,4.0,85,0.01,,,0.01,,2013-04-21 23:32:00,
2013-04-21 19:42:00,78.0,73.0,30.06,SW,215,2.0,4.0,85,0.01,,,0.01,,2013-04-21 23:42:00,
2013-04-21 19:52:00,78.0,74.0,30.06,WSW,240,1.0,6.0,88,0.01,,,0.01,,2013-04-21 23:52:00,
2013-04-21 20:01:00,77.0,73.0,30.05,West,281,0.0,4.0,88,0.01,,,0.01,,2013-04-22 00:01:00,
2013-04-21 20:11:00,77.0,73.0,30.05,West,281,0.0,4.0,88,0.01,,,0.01,,2013-04-22 00:11:00,
2013-04-21 20:22:00,76.0,72.0,30.06,WNW,285,2.0,3.0,88,0.01,,,0.01,,2013-04-22 00:22:00,
2013-04-21 20:32:00,76.0,73.0,30.05,West,270,0.0,1.0,89,0.00,,,0.01,,2013-04-22 00:32:00,
2013-04-21 20:42:00,76.0,73.0,30.05,West,270,0.0,1.0,89,0.00,,,0.01,,2013-04-22 00:42:00,
2013-04-21 20:52:00,76.0,73.0,30.05,NW,307,0.0,0.0,90,0.00,,,0.01,,2013-04-22 00:52:00,
2013-04-21 21:01:00,76.0,73.0,30.05,NW,309,0.0,0.0,90,0.00,,,0.01,,2013-04-22 01:01:00,
2013-04-21 21:12:00,76.0,73.0,30.05,NW,309,0.0,0.0,90,0.00,,,0.01,,2013-04-22 01:12:00,
2013-04-21 21:22:00,76.0,73.0,30.05,NE,41,0.0,1.0,91,0.00,,,0.01,,2013-04-22 01:22:00,
2013-04-21 21:32:00,76.0,73.0,30.04,East,94,0.0,2.0,90,0.00,,,0.01,,2013-04-22 01:32:00,
2013-04-21 21:42:00,76.0,73.0,30.04,East,94,0.0,2.0,90,0.00,,,0.01,,2013-04-22 01:42:00,
2013-04-21 21:52:00,76.0,73.0,30.05,ESE,107,0.0,1.0,90,0.00,,,0.01,,2013-04-22 01:52:00,
2013-04-21 22:02:00,76.0,73.0,30.06,ESE,105,0.0,0.0,90,0.00,,,0.01,,2013-04-22 02:02:00,
2013-04-21 22:11:00,76.0,73.0,30.06,ESE,106,0.0,0.0,90,0.00,,,0.01,,2013-04-22 02:11:00,
2013-04-21 22:22:00,76.0,73.0,30.06,ESE,106,0.0,0.0,90,0.00,,,0.01,,2013-04-22 02:22:00,
2013-04-21 22:32:00,76.0,73.0,30.06,ESE,105,0.0,0.0,90,0.00,,,0.01,,2013-04-22 02:32:00,
2013-04-21 22:42:00,76.0,73.0,30.06,ESE,105,0.0,0.0,90,0.00,,,0.01,,2013-04-22 02:42:00,
2013-04-21 22:52:00,76.0,73.0,30.06,ESE,106,0.0,0.0,91,0.00,,,0.01,,2013-04-22 02:52:00,
2013-04-21 23:02:00,76.0,73.0,30.05,East,101,0.0,1.0,90,0.00,,,0.01,,2013-04-22 03:02:00,
2013-04-21 23:11:00,76.0,73.0,30.05,East,101,0.0,1.0,90,0.00,,,0.01,,2013-04-22 03:11:00,
2013-04-21 23:22:00,76.0,73.0,30.06,ESE,102,0.0,0.0,90,0.00,,,0.01,,2013-04-22 03:22:00,
2013-04-21 23:33:00,76.0,73.0,30.06,East,97,0.0,0.0,91,0.00,,,0.01,,2013-04-22 03:33:00,
2013-04-21 23:43:00,76.0,73.0,30.06,East,97,0.0,0.0,91,0.00,,,0.01,,2013-04-22 03:43:00,
2013-04-21 23:53:00,76.0,74.0,30.06,NW,314,0.0,1.0,92,0.00,,,0.01,,2013-04-22 03:53:00,